createdAt,value
2023-04-15T00:00:08.562Z,5.71
2023-04-15T00:03:10.780Z,5.69
2023-04-15T00:06:13.698Z,5.75
2023-04-15T00:09:15.874Z,5.74
2023-04-15T00:12:17.672Z,5.82
2023-04-15T00:15:19.712Z,5.80
2023-04-15T00:18:21.857Z,5.77
2023-04-15T00:21:23.836Z,5.85
2023-04-15T00:24:25.600Z,5.90
2023-04-15T00:27:27.516Z,5.93
2023-04-15T00:30:29.369Z,5.96
2023-04-15T00:33:31.918Z,5.98
2023-04-15T00:36:35.097Z,6.02
2023-04-15T00:39:36.997Z,5.99
2023-04-15T00:42:39.507Z,6.01
2023-04-15T00:45:41.378Z,5.90
2023-04-15T00:48:44.080Z,5.87
2023-04-15T00:51:46.211Z,5.89
2023-04-15T00:54:48.030Z,5.94
2023-04-15T00:57:50.703Z,5.95
2023-04-15T01:00:54.513Z,5.84
2023-04-15T01:04:00.699Z,5.88
2023-04-15T01:07:02.647Z,5.92
2023-04-15T01:10:05.212Z,5.85
2023-04-15T01:13:07.097Z,5.89
2023-04-15T01:16:09.646Z,5.99
2023-04-15T01:19:12.150Z,6.06
2023-04-15T01:22:14.526Z,6.09
2023-04-15T01:25:20.411Z,5.98
2023-04-15T01:28:22.377Z,6.03
2023-04-15T01:31:24.272Z,6.00
2023-04-15T01:34:26.383Z,6.06
2023-04-15T01:37:28.453Z,6.15
2023-04-15T01:40:30.435Z,6.18
2023-04-15T01:43:32.514Z,6.22
2023-04-15T01:46:34.557Z,6.29
2023-04-15T01:49:37.201Z,6.26
2023-04-15T01:52:39.104Z,6.12
2023-04-15T01:55:41.322Z,5.95
2023-04-15T01:58:45.587Z,5.99
2023-04-15T02:01:47.363Z,6.06
2023-04-15T02:04:49.142Z,6.08
2023-04-15T02:07:51.349Z,6.11
2023-04-15T02:10:53.233Z,6.14
2023-04-15T02:13:55.160Z,6.16
2023-04-15T02:16:57.020Z,6.19
2023-04-15T02:19:59.346Z,6.23
2023-04-15T02:23:01.925Z,6.24
2023-04-15T02:26:03.756Z,6.27
2023-04-15T02:29:05.897Z,6.31
2023-04-15T02:32:08.248Z,6.31
2023-04-15T02:35:10.268Z,6.34
2023-04-15T02:38:12.284Z,6.32
2023-04-15T02:41:14.311Z,6.33
2023-04-15T02:44:17.660Z,6.34
2023-04-15T02:47:19.515Z,6.34
2023-04-15T02:50:21.560Z,6.34
2023-04-15T02:53:23.372Z,6.37
2023-04-15T02:56:25.361Z,6.35
2023-04-15T02:59:27.298Z,6.33
2023-04-15T03:02:34.710Z,6.39
2023-04-15T03:05:38.967Z,6.41
2023-04-15T03:08:41.604Z,6.45
2023-04-15T03:11:43.485Z,6.47
2023-04-15T03:14:45.585Z,6.40
2023-04-15T03:17:49.566Z,6.44
2023-04-15T03:20:51.821Z,6.30
2023-04-15T03:23:53.827Z,6.23
2023-04-15T03:26:56.473Z,6.16
2023-04-15T03:29:58.240Z,6.22
2023-04-15T03:33:00.093Z,6.18
2023-04-15T03:36:01.971Z,6.21
2023-04-15T03:39:04.271Z,6.31
2023-04-15T03:42:06.234Z,6.29
2023-04-15T03:45:08.373Z,6.31
2023-04-15T03:48:16.482Z,6.38
2023-04-15T03:51:19.399Z,6.37
2023-04-15T03:54:21.299Z,6.48
2023-04-15T03:57:23.133Z,6.51
2023-04-15T04:00:25.475Z,6.54
2023-04-15T04:03:27.629Z,6.60
2023-04-15T04:06:29.634Z,6.58
2023-04-15T04:09:31.697Z,6.55
2023-04-15T04:12:33.540Z,6.59
2023-04-15T04:15:35.698Z,6.62
2023-04-15T04:18:37.512Z,6.62
2023-04-15T04:21:39.749Z,6.65
2023-04-15T04:24:41.677Z,6.68
2023-04-15T04:27:43.648Z,6.70
2023-04-15T04:30:45.654Z,6.70
2023-04-15T04:33:47.380Z,6.67
2023-04-15T04:36:49.104Z,6.67
2023-04-15T04:39:51.166Z,6.69
2023-04-15T04:42:53.808Z,6.71
2023-04-15T04:45:55.830Z,6.70
2023-04-15T04:48:58.076Z,6.69
2023-04-15T04:52:00.566Z,6.76
2023-04-15T04:55:02.409Z,6.81
2023-04-15T04:58:04.291Z,6.85
2023-04-15T05:01:06.153Z,6.91
2023-04-15T05:04:08.186Z,6.90
2023-04-15T05:07:10.826Z,6.95
2023-04-15T05:10:12.984Z,7.08
2023-04-15T05:13:14.908Z,7.24
2023-04-15T05:16:17.738Z,7.22
2023-04-15T05:19:19.754Z,7.27
2023-04-15T05:22:21.807Z,7.36
2023-04-15T05:25:23.573Z,7.34
2023-04-15T05:28:25.689Z,7.27
2023-04-15T05:31:27.690Z,7.31
2023-04-15T05:34:29.509Z,7.24
2023-04-15T05:37:31.330Z,7.45
2023-04-15T05:40:33.130Z,7.48
2023-04-15T05:43:35.331Z,7.54
2023-04-15T05:46:37.300Z,7.65
2023-04-15T05:49:39.232Z,7.62
2023-04-15T05:52:41.211Z,7.68
2023-04-15T05:55:42.955Z,7.67
2023-04-15T05:58:44.882Z,7.77
2023-04-15T06:01:47.200Z,7.86
2023-04-15T06:04:49.193Z,7.81
2023-04-15T06:07:51.381Z,7.91
2023-04-15T06:10:53.172Z,7.80
2023-04-15T06:13:55.244Z,7.76
2023-04-15T06:16:57.294Z,7.66
2023-04-15T06:19:59.241Z,7.76
2023-04-15T06:23:01.140Z,7.73
2023-04-15T06:26:03.158Z,7.77
2023-04-15T06:29:04.960Z,7.69
2023-04-15T06:32:07.139Z,7.69
2023-04-15T06:35:09.383Z,7.72
2023-04-15T06:38:11.438Z,7.86
2023-04-15T06:41:13.434Z,7.92
2023-04-15T06:44:15.170Z,8.03
2023-04-15T06:47:16.918Z,8.07
2023-04-15T06:50:18.824Z,8.08
2023-04-15T06:53:20.778Z,8.10
2023-04-15T06:56:23.421Z,8.27
2023-04-15T06:59:25.424Z,8.23
2023-04-15T07:02:27.690Z,8.23
2023-04-15T07:05:31.056Z,8.18
2023-04-15T07:08:33.759Z,8.25
2023-04-15T07:11:36.576Z,8.25
2023-04-15T07:14:38.378Z,8.28
2023-04-15T07:17:41.764Z,8.15
2023-04-15T07:20:44.188Z,8.22
2023-04-15T07:23:46.481Z,8.31
2023-04-15T07:26:50.551Z,8.36
2023-04-15T07:29:53.621Z,8.50
2023-04-15T07:33:01.407Z,8.67
2023-04-15T07:36:04.576Z,8.98
2023-04-15T07:39:06.760Z,9.39
2023-04-15T07:42:08.812Z,9.89
2023-04-15T07:45:11.596Z,10.15
2023-04-15T07:48:13.437Z,10.62
2023-04-15T07:51:15.283Z,10.13
2023-04-15T07:54:17.189Z,10.11
2023-04-15T07:57:18.947Z,10.07
2023-04-15T08:00:20.818Z,10.28
2023-04-15T08:03:23.800Z,10.44
2023-04-15T08:06:25.902Z,10.30
2023-04-15T08:09:27.684Z,10.55
2023-04-15T08:12:29.522Z,10.64
2023-04-15T08:15:32.942Z,11.22
2023-04-15T08:18:35.115Z,11.59
2023-04-15T08:21:37.196Z,11.89
2023-04-15T08:24:39.212Z,12.01
2023-04-15T08:27:41.587Z,12.20
2023-04-15T08:30:43.417Z,12.22
2023-04-15T08:33:46.077Z,12.20
2023-04-15T08:36:47.988Z,12.01
2023-04-15T08:39:50.089Z,12.24
2023-04-15T08:42:54.426Z,11.79
2023-04-15T08:45:59.032Z,11.89
2023-04-15T08:49:04.286Z,11.90
2023-04-15T08:52:07.494Z,11.79
2023-04-15T08:55:09.854Z,11.66
2023-04-15T08:58:16.028Z,11.62
2023-04-15T09:01:17.942Z,11.76
2023-04-15T09:04:20.583Z,12.00
2023-04-15T09:07:22.394Z,12.16
2023-04-15T09:10:24.231Z,12.61
2023-04-15T09:13:26.101Z,13.07
2023-04-15T09:16:28.483Z,13.01
2023-04-15T09:19:31.619Z,12.80
2023-04-15T09:22:33.545Z,12.70
2023-04-15T09:25:35.804Z,12.88
2023-04-15T09:28:43.836Z,12.95
2023-04-15T09:31:46.464Z,12.84
2023-04-15T09:34:48.324Z,12.62
2023-04-15T09:37:50.971Z,12.69
2023-04-15T09:40:52.821Z,12.71
2023-04-15T09:43:55.163Z,12.37
2023-04-15T09:46:56.906Z,12.26
2023-04-15T09:50:01.017Z,12.95
2023-04-15T09:53:04.018Z,13.22
2023-04-15T09:56:08.074Z,13.29
2023-04-15T09:59:10.021Z,13.46
2023-04-15T10:02:13.867Z,13.48
2023-04-15T10:05:17.934Z,13.74
2023-04-15T10:08:21.937Z,13.78
2023-04-15T10:11:24.803Z,13.86
2023-04-15T10:14:29.290Z,13.59
2023-04-15T10:17:35.668Z,13.34
2023-04-15T10:20:38.551Z,13.40
2023-04-15T10:23:40.371Z,13.17
2023-04-15T10:26:42.949Z,12.91
2023-04-15T10:29:45.530Z,12.73
2023-04-15T10:32:47.501Z,12.57
2023-04-15T10:35:51.737Z,12.85
2023-04-15T10:38:53.689Z,12.73
2023-04-15T10:42:15.941Z,13.08
2023-04-15T10:45:19.404Z,13.39
2023-04-15T10:48:21.185Z,13.74
2023-04-15T10:51:30.690Z,13.90
2023-04-15T10:54:33.676Z,13.73
2023-04-15T10:57:38.716Z,13.64
2023-04-15T11:00:40.464Z,13.38
2023-04-15T11:03:43.811Z,13.08
2023-04-15T11:06:46.253Z,13.10
2023-04-15T11:09:48.038Z,12.96
2023-04-15T11:12:58.190Z,13.09
2023-04-15T11:16:01.709Z,13.00
2023-04-15T11:19:03.869Z,12.83
2023-04-15T11:22:10.222Z,12.66
2023-04-15T11:25:29.540Z,12.81
2023-04-15T11:28:32.170Z,13.26
2023-04-15T11:31:36.337Z,13.51
2023-04-15T11:34:38.218Z,13.43
2023-04-15T11:37:40.655Z,13.27
2023-04-15T11:40:46.220Z,13.00
2023-04-15T11:43:49.755Z,12.91
2023-04-15T11:46:51.614Z,13.06
2023-04-15T11:49:53.378Z,13.33
2023-04-15T11:52:59.789Z,13.50
2023-04-15T11:56:01.943Z,13.41
2023-04-15T11:59:04.515Z,13.50
2023-04-15T12:02:15.240Z,13.22
2023-04-15T12:05:17.410Z,13.37
2023-04-15T12:08:19.362Z,13.42
2023-04-15T12:11:57.530Z,13.44
2023-04-15T12:14:59.973Z,13.12
2023-04-15T12:18:01.934Z,13.24
2023-04-15T12:21:14.650Z,13.09
2023-04-15T12:24:21.446Z,13.42
2023-04-15T12:27:29.681Z,13.68
2023-04-15T12:30:32.264Z,13.33
2023-04-15T12:33:34.738Z,13.12
2023-04-15T12:36:37.226Z,12.95
2023-04-15T12:39:41.155Z,12.82
2023-04-15T12:42:43.012Z,12.80
2023-04-15T12:45:44.856Z,13.17
2023-04-15T12:48:46.666Z,12.93
2023-04-15T12:51:50.400Z,13.40
2023-04-15T12:54:53.375Z,13.51
2023-04-15T12:57:55.154Z,13.64
2023-04-15T13:00:57.474Z,13.34
2023-04-15T13:03:59.511Z,13.40
2023-04-15T13:07:02.211Z,13.23
2023-04-15T13:10:04.259Z,13.18
2023-04-15T13:13:06.254Z,12.99
2023-04-15T13:16:08.331Z,12.82
2023-04-15T13:19:10.730Z,12.68
2023-04-15T13:22:14.934Z,12.73
2023-04-15T13:25:16.814Z,12.83
2023-04-15T13:28:18.728Z,12.60
2023-04-15T13:31:20.547Z,12.65
2023-04-15T13:34:23.415Z,12.65
2023-04-15T13:37:30.004Z,12.25
2023-04-15T13:40:31.870Z,12.32
2023-04-15T13:43:34.371Z,12.53
2023-04-15T13:46:36.304Z,12.45
2023-04-15T13:49:38.177Z,12.42
2023-04-15T13:52:43.311Z,12.58
2023-04-15T13:55:45.384Z,12.54
2023-04-15T13:58:47.130Z,12.63
2023-04-15T14:01:49.200Z,12.60
2023-04-15T14:04:51.422Z,12.37
2023-04-15T14:07:53.192Z,12.45
2023-04-15T14:10:54.949Z,12.51
2023-04-15T14:13:56.820Z,12.30
2023-04-15T14:16:58.833Z,12.34
2023-04-15T14:20:00.853Z,12.32
2023-04-15T14:23:03.033Z,12.28
2023-04-15T14:26:05.088Z,12.01
2023-04-15T14:29:07.315Z,12.03
2023-04-15T14:32:11.961Z,12.18
2023-04-15T14:35:14.681Z,12.26
2023-04-15T14:38:17.444Z,12.11
2023-04-15T14:41:19.528Z,11.87
2023-04-15T14:44:21.496Z,11.77
2023-04-15T14:47:23.786Z,11.71
2023-04-15T14:50:26.801Z,11.66
2023-04-15T14:53:29.267Z,11.55
2023-04-15T14:56:32.003Z,11.50
2023-04-15T14:59:34.118Z,11.37
2023-04-15T15:02:39.682Z,11.49
2023-04-15T15:05:43.130Z,11.52
2023-04-15T15:08:46.430Z,11.48
2023-04-15T15:11:48.418Z,11.56
2023-04-15T15:14:50.901Z,11.61
2023-04-15T15:17:53.972Z,11.51
2023-04-15T15:20:56.359Z,11.54
2023-04-15T15:23:58.222Z,11.52
2023-04-15T15:26:59.985Z,11.61
2023-04-15T15:30:02.024Z,11.65
2023-04-15T15:33:04.309Z,11.70
2023-04-15T15:36:10.826Z,11.76
2023-04-15T15:39:12.608Z,11.80
2023-04-15T15:42:14.684Z,11.79
2023-04-15T15:45:17.201Z,11.76
2023-04-15T15:48:19.034Z,11.69
2023-04-15T15:51:21.036Z,11.67
2023-04-15T15:54:22.873Z,11.62
2023-04-15T15:57:24.708Z,11.56
2023-04-15T16:00:26.553Z,11.56
2023-04-15T16:03:29.270Z,11.54
2023-04-15T16:06:34.459Z,11.50
2023-04-15T16:09:37.165Z,11.50
2023-04-15T16:12:39.095Z,11.39
2023-04-15T16:15:41.215Z,11.39
2023-04-15T16:18:43.133Z,11.24
2023-04-15T16:21:44.973Z,11.24
2023-04-15T16:24:46.953Z,10.99
2023-04-15T16:28:00.923Z,10.62
2023-04-15T16:31:07.712Z,10.42
2023-04-15T16:34:10.430Z,10.36
2023-04-15T16:37:12.307Z,9.92
2023-04-15T16:40:15.326Z,10.00
2023-04-15T16:43:17.593Z,9.60
2023-04-15T16:46:19.579Z,9.62
2023-04-15T16:49:21.356Z,9.48
2023-04-15T16:52:23.126Z,9.41
2023-04-15T16:55:24.974Z,9.28
2023-04-15T16:58:28.826Z,9.16
2023-04-15T17:01:31.148Z,9.07
2023-04-15T17:04:33.471Z,8.87
2023-04-15T17:07:35.799Z,8.93
2023-04-15T17:10:37.691Z,8.79
2023-04-15T17:13:40.034Z,8.87
2023-04-15T17:16:43.185Z,8.87
2023-04-15T17:19:46.583Z,8.88
2023-04-15T17:22:49.209Z,8.85
2023-04-15T17:25:51.580Z,8.85
2023-04-15T17:28:53.505Z,8.91
2023-04-15T17:31:55.846Z,8.89
2023-04-15T17:34:58.513Z,8.94
2023-04-15T17:38:00.596Z,8.96
2023-04-15T17:41:02.853Z,9.01
2023-04-15T17:44:04.950Z,9.08
2023-04-15T17:47:07.236Z,9.14
2023-04-15T17:50:11.533Z,9.01
2023-04-15T17:53:13.636Z,9.13
2023-04-15T17:56:15.644Z,9.07
2023-04-15T17:59:18.369Z,9.12
2023-04-15T18:02:20.667Z,8.86
2023-04-15T18:05:23.102Z,8.91
2023-04-15T18:08:25.687Z,8.71
2023-04-15T18:11:27.731Z,8.39
2023-04-15T18:14:34.839Z,8.49
2023-04-15T18:17:37.310Z,8.43
2023-04-15T18:20:39.418Z,8.43
2023-04-15T18:23:41.475Z,8.35
2023-04-15T18:26:43.540Z,8.46
2023-04-15T18:29:46.060Z,8.49
2023-04-15T18:32:48.309Z,8.51
2023-04-15T18:35:50.720Z,8.55
2023-04-15T18:38:53.089Z,8.54
2023-04-15T18:41:56.131Z,8.43
2023-04-15T18:44:58.634Z,8.47
2023-04-15T18:48:01.128Z,8.50
2023-04-15T18:51:03.284Z,8.46
2023-04-15T18:54:05.300Z,8.45
2023-04-15T18:57:07.314Z,8.39
2023-04-15T19:00:11.485Z,8.30
2023-04-15T19:03:13.865Z,8.35
2023-04-15T19:06:16.620Z,8.33
2023-04-15T19:09:18.801Z,8.29
2023-04-15T19:12:21.018Z,8.26
2023-04-15T19:15:23.132Z,8.28
2023-04-15T19:18:25.101Z,8.30
2023-04-15T19:21:27.898Z,8.28
2023-04-15T19:24:33.018Z,8.25
2023-04-15T19:27:35.414Z,8.19
2023-04-15T19:30:37.541Z,8.14
2023-04-15T19:33:39.707Z,8.10
2023-04-15T19:36:42.063Z,8.03
2023-04-15T19:39:44.213Z,7.90
2023-04-15T19:42:46.708Z,7.81
2023-04-15T19:45:52.150Z,7.82
2023-04-15T19:48:55.360Z,7.78
2023-04-15T19:51:57.771Z,7.76
2023-04-15T19:54:59.809Z,7.78
2023-04-15T19:58:01.865Z,7.64
2023-04-15T20:01:04.147Z,7.41
2023-04-15T20:04:07.012Z,7.50
2023-04-15T20:07:10.017Z,7.30
2023-04-15T20:10:13.298Z,7.43
2023-04-15T20:13:15.709Z,7.48
2023-04-15T20:16:17.780Z,7.45
2023-04-15T20:19:19.927Z,7.52
2023-04-15T20:22:22.097Z,7.58
2023-04-15T20:25:23.921Z,7.62
2023-04-15T20:28:27.528Z,7.64
2023-04-15T20:31:29.592Z,7.63
2023-04-15T20:34:31.710Z,7.67
2023-04-15T20:37:33.988Z,7.66
2023-04-15T20:40:36.408Z,7.68
2023-04-15T20:43:38.357Z,7.71
2023-04-15T20:46:40.563Z,7.71
2023-04-15T20:49:42.940Z,7.72
2023-04-15T20:52:44.855Z,7.65
2023-04-15T20:55:46.800Z,7.72
2023-04-15T20:58:48.845Z,7.61
2023-04-15T21:01:50.923Z,7.64
2023-04-15T21:04:52.829Z,7.62
2023-04-15T21:07:54.851Z,7.60
2023-04-15T21:10:57.389Z,7.57
2023-04-15T21:13:59.253Z,7.60
2023-04-15T21:17:08.468Z,7.61
2023-04-15T21:20:12.371Z,7.63
2023-04-15T21:23:14.271Z,7.67
2023-04-15T21:26:16.137Z,7.70
2023-04-15T21:29:18.327Z,7.66
2023-04-15T21:32:20.274Z,7.64
2023-04-15T21:35:22.152Z,7.63
2023-04-15T21:38:24.138Z,7.63
2023-04-15T21:41:26.681Z,7.59
2023-04-15T21:44:28.624Z,7.60
2023-04-15T21:47:30.639Z,7.60
2023-04-15T21:50:32.526Z,7.62
2023-04-15T21:53:34.982Z,7.61
2023-04-15T21:56:37.890Z,7.50
2023-04-15T21:59:39.685Z,7.45
2023-04-15T22:02:42.223Z,7.44
2023-04-15T22:05:45.857Z,7.46
2023-04-15T22:08:57.030Z,7.33
2023-04-15T22:11:59.988Z,7.34
2023-04-15T22:15:02.550Z,7.36
2023-04-15T22:18:05.514Z,7.32
2023-04-15T22:21:07.969Z,7.33
2023-04-15T22:24:39.238Z,7.36
2023-04-15T22:27:31.712Z,7.34
2023-04-15T22:30:39.896Z,7.33
2023-04-15T22:33:41.686Z,7.34
2023-04-15T22:36:43.419Z,7.36
2023-04-15T22:39:45.603Z,7.38
2023-04-15T22:42:48.108Z,7.42
2023-04-15T22:45:50.728Z,7.38
2023-04-15T22:48:54.130Z,7.37
2023-04-15T22:51:56.066Z,7.34
2023-04-15T22:54:58.322Z,7.30
2023-04-15T22:58:00.240Z,7.29
2023-04-15T23:01:02.572Z,7.27
2023-04-15T23:04:07.068Z,7.23
2023-04-15T23:07:12.939Z,7.21
2023-04-15T23:10:14.687Z,7.10
2023-04-15T23:13:16.477Z,7.07
2023-04-15T23:16:18.297Z,7.08
2023-04-15T23:19:20.549Z,7.00
2023-04-15T23:22:22.659Z,7.01
2023-04-15T23:25:24.439Z,6.99
2023-04-15T23:28:26.276Z,6.99
2023-04-15T23:31:28.369Z,6.97
2023-04-15T23:34:30.949Z,6.95
2023-04-15T23:37:32.810Z,6.92
2023-04-15T23:40:34.763Z,6.84
2023-04-15T23:43:36.731Z,6.81
2023-04-15T23:46:38.576Z,6.75
2023-04-15T23:49:41.011Z,6.71
2023-04-15T23:52:42.864Z,6.58
2023-04-15T23:55:44.696Z,6.55
2023-04-15T23:58:46.678Z,6.61
